createdAt,value
2023-02-17T00:00:31.480Z,96284.75
2023-02-17T00:02:59.045Z,96280.94
2023-02-17T00:05:26.842Z,96282.03
2023-02-17T00:07:54.168Z,96279.03
2023-02-17T00:10:20.784Z,96273.91
2023-02-17T00:12:47.265Z,96274.44
2023-02-17T00:15:13.808Z,96279.03
2023-02-17T00:17:40.424Z,96271.19
2023-02-17T00:20:07.557Z,96276.06
2023-02-17T00:22:34.082Z,96276.06
2023-02-17T00:25:00.792Z,96279.31
2023-02-17T00:27:27.476Z,96270.91
2023-02-17T00:29:54.113Z,96273.31
2023-02-17T00:32:20.725Z,96280.34
2023-02-17T00:34:49.617Z,96283.59
2023-02-17T00:37:16.247Z,96278.16
2023-02-17T00:39:42.908Z,96281.69
2023-02-17T00:42:10.466Z,96282.97
2023-02-17T00:44:37.061Z,96277.84
2023-02-17T00:47:03.567Z,96275.16
2023-02-17T00:49:30.228Z,96271.66
2023-02-17T00:52:00.301Z,96274.34
2023-02-17T00:54:27.061Z,96270.56
2023-02-17T00:56:53.736Z,96268.13
2023-02-17T00:59:20.331Z,96266.75
2023-02-17T01:01:47.183Z,96266.75
2023-02-17T01:04:13.795Z,96268.38
2023-02-17T01:06:40.543Z,96267.00
2023-02-17T01:09:09.409Z,96268.88
2023-02-17T01:11:36.486Z,96256.97
2023-02-17T01:14:05.506Z,96261.59
2023-02-17T01:16:35.975Z,96258.03
2023-02-17T01:19:07.648Z,96258.59
2023-02-17T01:21:35.343Z,96266.16
2023-02-17T01:24:04.681Z,96265.03
2023-02-17T01:26:33.140Z,96266.38
2023-02-17T01:29:02.157Z,96261.25
2023-02-17T01:31:29.496Z,96263.38
2023-02-17T01:33:58.161Z,96252.84
2023-02-17T01:36:25.039Z,96254.75
2023-02-17T01:38:51.723Z,96255.81
2023-02-17T01:41:20.757Z,96255.53
2023-02-17T01:44:16.499Z,96250.41
2023-02-17T01:46:48.222Z,96248.00
2023-02-17T01:49:23.509Z,96237.72
2023-02-17T01:51:56.068Z,96238.81
2023-02-17T01:54:30.225Z,96242.91
2023-02-17T01:56:59.688Z,96230.97
2023-02-17T01:59:26.641Z,96233.16
2023-02-17T02:01:58.710Z,96235.88
2023-02-17T02:04:29.544Z,96236.44
2023-02-17T02:06:56.644Z,96238.06
2023-02-17T02:09:36.449Z,96238.06
2023-02-17T02:12:03.446Z,96241.84
2023-02-17T02:14:32.704Z,96235.06
2023-02-17T02:17:21.351Z,96239.16
2023-02-17T02:20:08.766Z,96237.78
2023-02-17T02:22:52.585Z,96241.28
2023-02-17T02:25:56.700Z,96241.28
2023-02-17T02:28:45.557Z,96244.78
2023-02-17T02:31:29.913Z,96244.50
2023-02-17T02:34:05.969Z,96242.34
2023-02-17T02:36:56.213Z,96242.56
2023-02-17T02:39:29.264Z,96253.91
2023-02-17T02:42:03.454Z,96247.41
2023-02-17T02:44:30.541Z,96247.66
2023-02-17T02:47:02.605Z,96248.16
2023-02-17T02:49:31.811Z,96239.22
2023-02-17T02:52:21.313Z,96240.88
2023-02-17T02:55:08.055Z,96241.66
2023-02-17T02:57:51.215Z,96236.25
2023-02-17T03:00:38.545Z,96237.88
2023-02-17T03:03:15.426Z,96237.88
2023-02-17T03:05:55.031Z,96229.47
2023-02-17T03:08:49.045Z,96229.75
2023-02-17T03:11:16.910Z,96224.84
2023-02-17T03:13:43.404Z,96220.50
2023-02-17T03:16:13.933Z,96226.47
2023-02-17T03:18:40.581Z,96221.03
2023-02-17T03:21:15.073Z,96219.41
2023-02-17T03:23:42.545Z,96228.34
2023-02-17T03:26:09.194Z,96222.41
2023-02-17T03:28:35.810Z,96219.19
2023-02-17T03:31:02.621Z,96214.56
2023-02-17T03:33:29.414Z,96218.91
2023-02-17T03:35:56.135Z,96206.16
2023-02-17T03:38:22.919Z,96215.09
2023-02-17T03:40:49.398Z,96209.66
2023-02-17T03:43:17.914Z,96213.72
2023-02-17T03:45:44.752Z,96209.09
2023-02-17T03:48:11.290Z,96219.66
2023-02-17T03:50:37.811Z,96202.31
2023-02-17T03:53:04.290Z,96205.81
2023-02-17T03:55:31.111Z,96201.72
2023-02-17T03:57:57.650Z,96211.78
2023-02-17T04:00:24.220Z,96212.28
2023-02-17T04:02:50.699Z,96207.38
2023-02-17T04:05:17.257Z,96200.31
2023-02-17T04:07:43.810Z,96204.88
2023-02-17T04:10:11.010Z,96201.88
2023-02-17T04:12:37.538Z,96203.50
2023-02-17T04:15:04.454Z,96208.34
2023-02-17T04:17:31.069Z,96212.09
2023-02-17T04:19:57.711Z,96206.91
2023-02-17T04:22:24.242Z,96200.09
2023-02-17T04:24:51.018Z,96198.72
2023-02-17T04:27:17.560Z,96205.19
2023-02-17T04:29:44.066Z,96203.78
2023-02-17T04:32:10.652Z,96199.72
2023-02-17T04:34:37.181Z,96194.50
2023-02-17T04:37:03.828Z,96197.72
2023-02-17T04:39:30.407Z,96192.00
2023-02-17T04:41:57.337Z,96192.56
2023-02-17T04:44:23.917Z,96195.47
2023-02-17T04:46:50.433Z,96186.25
2023-02-17T04:49:16.948Z,96189.47
2023-02-17T04:51:43.481Z,96176.72
2023-02-17T04:54:10.051Z,96183.75
2023-02-17T04:56:36.534Z,96181.84
2023-02-17T04:59:03.160Z,96182.34
2023-02-17T05:01:29.749Z,96185.59
2023-02-17T05:03:56.342Z,96180.97
2023-02-17T05:06:22.886Z,96175.56
2023-02-17T05:08:49.362Z,96177.19
2023-02-17T05:11:16.544Z,96169.03
2023-02-17T05:13:43.201Z,96163.91
2023-02-17T05:16:09.928Z,96162.88
2023-02-17T05:18:36.484Z,96164.50
2023-02-17T05:21:03.096Z,96164.50
2023-02-17T05:23:29.646Z,96160.66
2023-02-17T05:25:56.193Z,96160.38
2023-02-17T05:28:22.864Z,96155.25
2023-02-17T05:30:49.972Z,96154.94
2023-02-17T05:33:16.718Z,96148.22
2023-02-17T05:35:43.440Z,96143.00
2023-02-17T05:38:10.145Z,96151.94
2023-02-17T05:40:36.660Z,96149.22
2023-02-17T05:43:03.209Z,96162.22
2023-02-17T05:45:29.733Z,96161.13
2023-02-17T05:47:56.396Z,96167.03
2023-02-17T05:50:22.990Z,96166.75
2023-02-17T05:52:49.473Z,96170.22
2023-02-17T05:55:16.050Z,96170.41
2023-02-17T05:57:42.662Z,96172.53
2023-02-17T06:00:09.884Z,96164.31
2023-02-17T06:02:39.552Z,96168.88
2023-02-17T06:05:06.585Z,96169.91
2023-02-17T06:07:33.157Z,96161.69
2023-02-17T06:09:59.679Z,96172.22
2023-02-17T06:12:26.587Z,96175.44
2023-02-17T06:14:53.233Z,96178.16
2023-02-17T06:17:19.770Z,96170.56
2023-02-17T06:19:46.208Z,96177.38
2023-02-17T06:22:12.930Z,96177.06
2023-02-17T06:24:39.538Z,96168.03
2023-02-17T06:27:06.367Z,96172.59
2023-02-17T06:29:33.329Z,96167.94
2023-02-17T06:32:00.038Z,96176.59
2023-02-17T06:34:26.702Z,96172.19
2023-02-17T06:36:53.978Z,96167.78
2023-02-17T06:39:20.456Z,96174.81
2023-02-17T06:41:47.239Z,96179.06
2023-02-17T06:44:13.794Z,96188.25
2023-02-17T06:46:40.461Z,96184.09
2023-02-17T06:49:07.124Z,96192.16
2023-02-17T06:51:33.637Z,96191.25
2023-02-17T06:54:00.184Z,96195.00
2023-02-17T06:56:26.995Z,96181.94
2023-02-17T07:01:56.407Z,96186.25
2023-02-17T07:04:22.937Z,96174.31
2023-02-17T07:06:49.504Z,96173.28
2023-02-17T07:09:15.995Z,96171.97
2023-02-17T07:11:42.728Z,96173.69
2023-02-17T07:14:09.185Z,96182.41
2023-02-17T07:16:35.757Z,96170.53
2023-02-17T07:19:02.447Z,96183.00
2023-02-17T07:21:28.985Z,96178.88
2023-02-17T07:23:55.553Z,96180.50
2023-02-17T07:26:22.415Z,96171.75
2023-02-17T07:28:48.926Z,96176.59
2023-02-17T07:31:17.512Z,96186.06
2023-02-17T07:33:44.865Z,96184.16
2023-02-17T07:36:16.854Z,96188.78
2023-02-17T07:38:43.648Z,96181.53
2023-02-17T07:41:14.201Z,96180.63
2023-02-17T07:43:41.304Z,96176.94
2023-02-17T07:46:10.255Z,96186.28
2023-02-17T07:48:37.246Z,96185.50
2023-02-17T07:51:08.925Z,96185.75
2023-02-17T07:53:36.159Z,96177.06
2023-02-17T07:56:08.500Z,96185.63
2023-02-17T07:58:38.025Z,96190.84
2023-02-17T08:01:19.828Z,96183.09
2023-02-17T08:03:47.528Z,96176.94
2023-02-17T08:06:17.504Z,96183.88
2023-02-17T08:08:44.547Z,96194.34
2023-02-17T08:11:13.655Z,96195.06
2023-02-17T08:13:40.233Z,96199.75
2023-02-17T08:16:07.046Z,96187.34
2023-02-17T08:18:36.510Z,96200.03
2023-02-17T08:21:03.812Z,96190.13
2023-02-17T08:23:30.436Z,96195.16
2023-02-17T08:25:58.298Z,96200.38
2023-02-17T08:28:25.122Z,96195.28
2023-02-17T08:30:51.875Z,96192.25
2023-02-17T08:33:18.572Z,96195.50
2023-02-17T08:35:45.594Z,96207.88
2023-02-17T08:38:12.180Z,96189.78
2023-02-17T08:40:38.859Z,96181.09
2023-02-17T08:43:10.449Z,96208.38
2023-02-17T08:45:37.360Z,96192.72
2023-02-17T08:48:04.983Z,96184.59
2023-02-17T08:50:33.029Z,96190.91
2023-02-17T08:52:59.671Z,96195.72
2023-02-17T08:55:26.187Z,96193.34
2023-02-17T08:57:52.799Z,96201.22
2023-02-17T09:00:19.402Z,96207.03
2023-02-17T09:02:46.220Z,96204.00
2023-02-17T09:05:14.067Z,96205.94
2023-02-17T09:07:41.400Z,96205.16
2023-02-17T09:10:09.088Z,96213.66
2023-02-17T09:12:35.721Z,96206.31
2023-02-17T09:15:02.268Z,96206.00
2023-02-17T09:17:28.800Z,96230.88
2023-02-17T09:19:55.334Z,96213.09
2023-02-17T09:22:31.607Z,96207.31
2023-02-17T09:24:58.895Z,96223.38
2023-02-17T09:27:25.495Z,96219.69
2023-02-17T09:29:52.036Z,96226.91
2023-02-17T09:32:18.766Z,96224.06
2023-02-17T09:34:45.522Z,96237.69
2023-02-17T09:37:13.374Z,96244.88
2023-02-17T09:39:39.966Z,96245.66
2023-02-17T09:42:06.590Z,96244.66
2023-02-17T09:44:43.553Z,96246.44
2023-02-17T09:47:24.974Z,96238.72
2023-02-17T09:49:57.355Z,96237.56
2023-02-17T09:52:32.927Z,96230.22
2023-02-17T09:55:07.726Z,96252.03
2023-02-17T09:57:56.406Z,96230.22
2023-02-17T10:00:32.488Z,96228.91
2023-02-17T10:03:18.695Z,96229.59
2023-02-17T10:05:55.833Z,96233.75
2023-02-17T10:08:27.410Z,96230.09
2023-02-17T10:11:05.633Z,96233.00
2023-02-17T10:13:35.647Z,96230.78
2023-02-17T10:16:10.336Z,96238.19
2023-02-17T10:18:44.782Z,96224.53
2023-02-17T10:21:16.386Z,96215.88
2023-02-17T10:23:43.036Z,96217.50
2023-02-17T10:26:34.004Z,96219.44
2023-02-17T10:29:12.644Z,96220.59
2023-02-17T10:32:00.670Z,96220.31
2023-02-17T10:34:54.886Z,96223.53
2023-02-17T10:38:02.068Z,96223.53
2023-02-17T10:40:29.178Z,96230.94
2023-02-17T10:43:01.288Z,96220.34
2023-02-17T10:45:35.366Z,96219.06
2023-02-17T10:48:09.443Z,96206.88
2023-02-17T10:50:37.960Z,96221.00
2023-02-17T10:53:14.364Z,96203.31
2023-02-17T10:58:35.486Z,96201.09
2023-02-17T11:01:03.473Z,96203.19
2023-02-17T11:03:33.099Z,96193.88
2023-02-17T11:06:09.408Z,96206.88
2023-02-17T11:08:50.827Z,96187.44
2023-02-17T11:11:24.309Z,96190.31
2023-02-17T11:14:06.636Z,96184.03
2023-02-17T11:16:46.277Z,96194.00
2023-02-17T11:20:09.578Z,96188.22
2023-02-17T11:22:34.338Z,96185.63
2023-02-17T11:25:28.742Z,96180.81
2023-02-17T11:28:07.139Z,96183.16
2023-02-17T11:30:40.299Z,96183.16
2023-02-17T11:33:26.944Z,96171.13
2023-02-17T11:35:56.862Z,96177.84
2023-02-17T11:38:26.157Z,96166.81
2023-02-17T11:41:00.178Z,96149.28
2023-02-17T11:43:29.991Z,96176.91
2023-02-17T11:46:09.496Z,96165.97
2023-02-17T11:49:14.439Z,96168.84
2023-02-17T11:51:46.951Z,96175.31
2023-02-17T11:58:06.760Z,96160.53
2023-02-17T12:00:47.803Z,96158.25
2023-02-17T12:03:48.500Z,96155.34
2023-02-17T12:06:36.496Z,96168.19
2023-02-17T12:09:09.107Z,96155.97
2023-02-17T12:12:15.726Z,96148.53
2023-02-17T12:15:03.538Z,96147.41
2023-02-17T12:17:36.217Z,96132.25
2023-02-17T12:20:15.213Z,96137.72
2023-02-17T12:22:52.015Z,96122.00
2023-02-17T12:25:38.678Z,96121.50
2023-02-17T12:28:46.949Z,96135.75
2023-02-17T12:31:29.780Z,96122.91
2023-02-17T12:34:25.275Z,96122.84
2023-02-17T12:37:10.954Z,96123.31
2023-02-17T12:39:51.829Z,96126.66
2023-02-17T12:42:30.445Z,96107.13
2023-02-17T12:45:03.786Z,96121.56
2023-02-17T12:48:10.290Z,96127.03
2023-02-17T12:50:52.174Z,96124.91
2023-02-17T12:53:48.929Z,96118.34
2023-02-17T13:00:33.682Z,96112.25
2023-02-17T13:03:37.253Z,96113.34
2023-02-17T13:06:48.941Z,96112.88
2023-02-17T13:10:08.033Z,96116.56
2023-02-17T13:13:40.175Z,96102.34
2023-02-17T13:30:12.849Z,96122.31
2023-02-17T13:43:10.876Z,96105.09
2023-02-17T13:47:10.076Z,96120.53
2023-02-17T13:49:44.819Z,96117.47
2023-02-17T13:56:24.655Z,96112.84
2023-02-17T13:59:42.716Z,96120.25
2023-02-17T14:05:59.547Z,96100.66
2023-02-17T14:08:39.192Z,96106.63
2023-02-17T14:11:18.414Z,96104.38
2023-02-17T14:17:34.132Z,96116.59
2023-02-17T14:20:33.149Z,96118.81
2023-02-17T14:26:45.869Z,96118.72
2023-02-17T14:29:32.975Z,96135.78
2023-02-17T14:32:46.202Z,96130.38
2023-02-17T14:39:00.008Z,96136.00
2023-02-17T14:41:58.587Z,96130.88
2023-02-17T14:44:44.157Z,96125.09
2023-02-17T14:50:33.837Z,96132.47
2023-02-17T14:53:41.755Z,96134.25
2023-02-17T14:57:12.164Z,96130.88
2023-02-17T15:03:34.490Z,96137.28
2023-02-17T15:06:14.425Z,96134.72
2023-02-17T15:09:03.324Z,96123.78
2023-02-17T15:11:48.874Z,96132.31
2023-02-17T15:14:46.265Z,96134.72
2023-02-17T15:17:26.824Z,96134.41
2023-02-17T15:30:12.580Z,96141.50
2023-02-17T15:32:55.266Z,96136.34
2023-02-17T15:35:42.653Z,96128.63
2023-02-17T15:38:13.656Z,96128.63
2023-02-17T15:40:41.456Z,96128.31
2023-02-17T15:43:20.659Z,96125.59
2023-02-17T15:45:47.673Z,96126.22
2023-02-17T15:48:24.271Z,96114.50
2023-02-17T15:50:51.376Z,96115.16
2023-02-17T15:53:18.092Z,96114.84
2023-02-17T15:55:45.172Z,96120.47
2023-02-17T15:58:18.077Z,96119.69
2023-02-17T16:00:45.708Z,96116.28
2023-02-17T16:03:13.605Z,96105.53
2023-02-17T16:05:40.285Z,96118.53
2023-02-17T16:08:06.857Z,96117.56
2023-02-17T16:10:34.621Z,96121.38
2023-02-17T16:13:02.785Z,96112.72
2023-02-17T16:15:31.948Z,96112.56
2023-02-17T16:17:58.982Z,96116.88
2023-02-17T16:20:34.391Z,96110.31
2023-02-17T16:23:01.635Z,96128.44
2023-02-17T16:25:29.516Z,96124.91
2023-02-17T16:27:56.166Z,96122.63
2023-02-17T16:30:29.249Z,96124.41
2023-02-17T16:32:56.313Z,96115.91
2023-02-17T16:35:31.235Z,96117.53
2023-02-17T16:38:05.328Z,96117.38
2023-02-17T16:40:34.821Z,96126.34
2023-02-17T16:43:01.506Z,96129.72
2023-02-17T16:45:31.850Z,96128.72
2023-02-17T16:48:01.078Z,96124.25
2023-02-17T16:50:33.725Z,96135.31
2023-02-17T16:53:06.120Z,96131.44
2023-02-17T16:55:34.423Z,96125.53
2023-02-17T16:58:02.886Z,96137.84
2023-02-17T17:00:33.091Z,96135.75
2023-02-17T17:02:59.951Z,96140.88
2023-02-17T17:05:28.711Z,96128.38
2023-02-17T17:07:56.067Z,96132.19
2023-02-17T17:10:31.320Z,96136.03
2023-02-17T17:12:58.331Z,96138.75
2023-02-17T17:15:25.008Z,96138.56
2023-02-17T17:17:54.539Z,96136.00
2023-02-17T17:20:23.349Z,96126.22
2023-02-17T17:22:50.134Z,96126.53
2023-02-17T17:25:17.445Z,96141.75
2023-02-17T17:27:44.080Z,96137.25
2023-02-17T17:30:18.324Z,96135.63
2023-02-17T17:32:45.126Z,96135.78
2023-02-17T17:35:11.980Z,96138.81
2023-02-17T17:37:39.553Z,96139.75
2023-02-17T17:40:07.516Z,96152.06
2023-02-17T17:42:34.173Z,96142.94
2023-02-17T17:45:00.647Z,96160.69
2023-02-17T17:47:30.171Z,96164.03
2023-02-17T17:49:57.168Z,96155.88
2023-02-17T17:52:23.936Z,96150.56
2023-02-17T17:54:50.553Z,96156.31
2023-02-17T17:57:17.040Z,96143.50
2023-02-17T17:59:43.752Z,96151.81
2023-02-17T18:02:10.351Z,96146.69
2023-02-17T18:04:36.966Z,96142.97
2023-02-17T18:07:03.660Z,96151.16
2023-02-17T18:09:34.696Z,96151.22
2023-02-17T18:12:05.698Z,96141.09
2023-02-17T18:14:32.658Z,96159.97
2023-02-17T18:16:59.600Z,96153.13
2023-02-17T18:19:26.689Z,96151.50
2023-02-17T18:21:53.197Z,96144.44
2023-02-17T18:24:19.902Z,96145.69
2023-02-17T18:26:46.452Z,96126.31
2023-02-17T18:29:13.152Z,96131.41
2023-02-17T18:31:39.833Z,96133.50
2023-02-17T18:34:06.480Z,96138.94
2023-02-17T18:36:32.985Z,96143.91
2023-02-17T18:38:59.516Z,96149.34
2023-02-17T18:41:29.222Z,96155.59
2023-02-17T18:43:57.451Z,96147.72
2023-02-17T18:46:26.576Z,96144.31
2023-02-17T18:48:55.349Z,96133.13
2023-02-17T18:51:23.391Z,96131.53
2023-02-17T18:53:50.890Z,96132.63
2023-02-17T18:56:20.627Z,96122.53
2023-02-17T18:58:48.029Z,96125.78
2023-02-17T19:01:16.708Z,96130.09
2023-02-17T19:03:44.333Z,96126.56
2023-02-17T19:06:19.631Z,96129.91
2023-02-17T19:08:48.032Z,96137.47
2023-02-17T19:11:16.512Z,96129.00
2023-02-17T19:13:43.008Z,96118.41
2023-02-17T19:16:15.353Z,96125.97
2023-02-17T19:18:43.524Z,96125.34
2023-02-17T19:21:10.573Z,96124.78
2023-02-17T19:23:37.895Z,96127.56
2023-02-17T19:26:06.280Z,96127.75
2023-02-17T19:28:35.258Z,96126.94
2023-02-17T19:31:02.541Z,96126.31
2023-02-17T19:33:29.062Z,96126.31
2023-02-17T19:35:55.585Z,96129.53
2023-02-17T19:38:22.169Z,96130.50
2023-02-17T19:40:48.721Z,96117.22
2023-02-17T19:43:15.316Z,96127.94
2023-02-17T19:45:41.947Z,96120.06
2023-02-17T19:48:08.465Z,96130.50
2023-02-17T19:50:37.568Z,96126.50
2023-02-17T19:53:04.129Z,96132.75
2023-02-17T19:55:30.618Z,96136.78
2023-02-17T19:57:57.135Z,96133.25
2023-02-17T20:00:25.046Z,96126.69
2023-02-17T20:02:51.922Z,96140.16
2023-02-17T20:05:18.765Z,96142.28
2023-02-17T20:07:45.240Z,96144.19
2023-02-17T20:10:12.688Z,96135.41
2023-02-17T20:12:39.349Z,96137.31
2023-02-17T20:15:06.290Z,96140.03
2023-02-17T20:17:32.974Z,96136.50
2023-02-17T20:19:59.637Z,96146.50
2023-02-17T20:22:26.471Z,96134.50
2023-02-17T20:24:53.045Z,96142.38
2023-02-17T20:27:19.586Z,96147.50
2023-02-17T20:29:46.175Z,96143.94
2023-02-17T20:32:12.817Z,96147.34
2023-02-17T20:34:40.409Z,96158.75
2023-02-17T20:37:08.069Z,96167.69
2023-02-17T20:39:35.526Z,96168.53
2023-02-17T20:42:03.258Z,96176.06
2023-02-17T20:44:29.866Z,96177.50
2023-02-17T20:46:57.242Z,96179.91
2023-02-17T20:49:24.430Z,96183.13
2023-02-17T20:51:51.199Z,96186.84
2023-02-17T20:54:18.137Z,96193.91
2023-02-17T20:56:46.670Z,96200.47
2023-02-17T20:59:14.277Z,96201.44
2023-02-17T21:01:42.039Z,96194.88
2023-02-17T21:04:09.197Z,96217.03
2023-02-17T21:06:38.499Z,96210.16
2023-02-17T21:09:09.366Z,96210.66
2023-02-17T21:11:35.985Z,96205.88
2023-02-17T21:14:02.495Z,96206.22
2023-02-17T21:16:30.920Z,96206.22
2023-02-17T21:18:58.893Z,96203.84
2023-02-17T21:21:26.136Z,96211.41
2023-02-17T21:23:53.101Z,96209.66
2023-02-17T21:26:20.057Z,96205.81
2023-02-17T21:28:47.302Z,96216.91
2023-02-17T21:31:15.189Z,96204.53
2023-02-17T21:33:43.010Z,96215.28
2023-02-17T21:36:17.733Z,96207.78
2023-02-17T21:38:44.434Z,96216.75
2023-02-17T21:41:16.495Z,96219.31
2023-02-17T21:43:43.366Z,96222.22
2023-02-17T21:46:11.848Z,96227.19
2023-02-17T21:48:38.439Z,96237.63
2023-02-17T21:51:09.909Z,96215.97
2023-02-17T21:53:36.698Z,96231.53
2023-02-17T21:56:04.924Z,96226.56
2023-02-17T21:58:33.349Z,96237.97
2023-02-17T22:01:00.356Z,96239.91
2023-02-17T22:03:27.587Z,96242.94
2023-02-17T22:05:54.080Z,96249.00
2023-02-17T22:08:20.866Z,96248.88
2023-02-17T22:10:47.603Z,96249.19
2023-02-17T22:13:14.166Z,96257.06
2023-02-17T22:15:40.688Z,96252.91
2023-02-17T22:18:07.388Z,96250.34
2023-02-17T22:20:34.337Z,96247.13
2023-02-17T22:23:00.898Z,96259.47
2023-02-17T22:25:27.358Z,96262.34
2023-02-17T22:27:53.932Z,96258.03
2023-02-17T22:30:20.753Z,96271.06
2023-02-17T22:32:47.310Z,96265.09
2023-02-17T22:35:14.163Z,96265.22
2023-02-17T22:37:40.726Z,96265.09
2023-02-17T22:40:08.267Z,96266.72
2023-02-17T22:42:34.830Z,96261.63
2023-02-17T22:45:01.405Z,96261.56
2023-02-17T22:47:28.044Z,96257.56
2023-02-17T22:49:54.564Z,96264.91
2023-02-17T22:52:21.205Z,96265.75
2023-02-17T22:54:47.797Z,96263.00
2023-02-17T22:57:14.280Z,96264.13
2023-02-17T22:59:41.015Z,96257.50
2023-02-17T23:02:07.573Z,96271.81
2023-02-17T23:04:34.330Z,96267.97
2023-02-17T23:07:00.899Z,96263.31
2023-02-17T23:09:27.456Z,96258.34
2023-02-17T23:11:54.527Z,96261.09
2023-02-17T23:14:21.159Z,96254.84
2023-02-17T23:16:47.801Z,96257.91
2023-02-17T23:19:16.461Z,96264.47
2023-02-17T23:21:47.927Z,96263.50
2023-02-17T23:24:16.226Z,96263.31
2023-02-17T23:26:42.792Z,96262.03
2023-02-17T23:29:09.894Z,96262.88
2023-02-17T23:31:37.816Z,96263.97
2023-02-17T23:34:04.787Z,96266.22
2023-02-17T23:36:31.691Z,96261.09
2023-02-17T23:38:59.550Z,96281.59
2023-02-17T23:41:26.976Z,96279.50
2023-02-17T23:43:53.972Z,96271.19
2023-02-17T23:46:20.845Z,96271.50
2023-02-17T23:48:47.687Z,96276.66
2023-02-17T23:51:18.803Z,96274.25
2023-02-17T23:53:45.692Z,96267.16
2023-02-17T23:56:22.952Z,96265.84
2023-02-17T23:58:49.579Z,96254.00
